Pagina principale
METAR-TAF:

METAR-TAF

Aeroporti :

Aeroporto Internazionale Jinnah

Karachi, Pakistan

latitudine: 24-54N, longitudine: 067-08E, altezza: 21 m

Osservazione

Il bollettino è stato emesso 40 minuti fa, alle 18:00 UTC
Vento 18 kt da ovest
Temperature 29°C
Umidità 70%
Pressione 1010 hPa
Visibilità: 6000 m
Nubi sparse ad un'altezza di 2000 ft

METAR: OPKC 191800Z 27018KT 6000 SCT020 29/23 Q1010 TEMPO 27018G25KT

Ora: 23:40 (18:40 UTC)

Previsione

Il bollettino è stato emesso 3 ore e 10 minuti fa, alle 15:30 UTC
Previsione valida dal 19 alle 18 UTC al 20 alle 03 UTC
Vento 8 kt da ovest con raffiche fino a 18 kt
Visibilità: 6000 m
Nubi sparse ad un'altezza di 3000 ft
Nubi sparse ad un'altezza di 10000 ft
Temporaneamente
dal 20 alle 00 UTC al 20 alle 03 UTC
Vento 8 kt da ovest
Visibilità: 4000 m
Nubi sparse ad un'altezza di 2000 ft
fumo

TAF: OPKC 191530Z 1918/2003 26008G18KT 6000 SCT030 SCT100 TEMPO 2000/2003 27008KT 4000 FU SCT020

Osservazioni e previsioni meteorologiche di più di 4000 aeroporti (messaggi METAR e TAF).

Le stazioni disponibili sono rappresentate dai dischi gialli e rossi sulla carta.

Puntare il mouse per vedere il nome della stazione.

Clicca sopra per visualizzare le osservazioni e previsioni meteorologiche.

Per cambiare la mappa : fare clic sui pulsanti verdi con una croce nera per ingrandire, il pulsante verde con un trattino per diminuire, o sulla freccia verde per le mappe adiacenti.


METAR-TAF: